• Join FlightAware (Why Join?)
  • Login
  • US Flag 
07:57PM EDT


 

Airport Tracker/Info


-or-


 

Live Flight TrackerFlight Track Log ✈ FLG3735 ✈ 28-Apr-2013 ✈ KDTW - KALB

Flight Track Log - Related Links

Times and Time Zones

All times are in EDT time to prevent confusion due to time zone crossing. See the FLG3735 flight status page for this flight to view local times or setup timezone preferences in your user account.

Time Position Orientation Groundspeed Altitude Reporting Facility
EDT Latitude Longitude Course Direction KTS MPH feet Rate Location/Type
10:07PM 42.2375 -83.3317 56° Northeast 167 192 1,400  Level Cleveland Center
10:08PM 42.2864 -83.2944 29° Northeast 215 247 3,400 1,860 Climbing Cleveland Center
10:09PM 42.3194 -83.2200 59° Northeast 274 315 5,200 2,220 Climbing Cleveland Center
10:10PM 42.3256 -83.1333 85° East 277 319 7,700 2,400 Climbing Cleveland Center
10:11PM 42.3131 -82.7681 75° East  Level FlightAware Approximate
10:12PM 42.3298 -82.6193 82° East  Level FlightAware Approximate
10:12PM 42.3331 -82.9847 86° East 313 360 10,700  Level Cleveland Center
10:13PM 42.3544 -82.4745 56° Northeast  Level FlightAware Approximate
10:13PM 42.3419 -82.8503 85° East 339 390 11,400  Level Cleveland Center
10:14PM 42.3511 -82.7017 85° East 372 428 12,900 1,440 Climbing Cleveland Center
10:15PM 42.3600 -82.5503 85° East 393 452 14,300 1,380 Climbing Cleveland Center
10:16PM 42.3647 -82.3928 88° East 407 468 15,700 1,260 Climbing Cleveland Center
10:17PM 42.3567 -82.2381 94° East 412 474 16,900 1,140 Climbing Cleveland Center
10:18PM 42.3525 -82.0750 92° East 424 488 18,000 1,080 Climbing Cleveland Center
10:19PM 42.3442 -81.9006 94° East 432 497 19,100 1,020 Climbing Cleveland Center
10:20PM 42.3356 -81.7403 94° East 432 497 20,100 960 Climbing Cleveland Center
10:21PM 42.3308 -81.5747 92° East 437 503 21,100 900 Climbing Cleveland Center
10:22PM 42.3217 -81.4117 94° East 437 503 22,000 840 Climbing Cleveland Center
10:23PM 42.3144 -81.2486 93° East 443 510 22,800 780 Climbing Cleveland Center
10:24PM 42.3050 -81.0800 94° East 443 510 23,600 660 Climbing Cleveland Center
10:25PM 42.2972 -80.9089 93° East 443 510 24,200 600 Climbing Cleveland Center
10:26PM 42.2892 -80.7628 94° East 443 510 24,800 600 Climbing Cleveland Center
10:27PM 42.2975 -80.5917 86° East 443 510 25,400 600 Climbing Cleveland Center
10:28PM 42.3142 -80.4231 82° East 443 510 26,000 600 Climbing Cleveland Center
10:29PM 42.3306 -80.2517 83° East 453 521 26,600 480 Climbing Cleveland Center
10:30PM 42.3467 -80.0831 83° East 453 521 27,000 180 Climbing Cleveland Center
10:31PM 42.3625 -79.9089 83° East 458 527 27,000  Level Cleveland Center
10:32PM 42.3778 -79.7317 83° East 464 534 27,000  Level Cleveland Center
10:33PM 42.3931 -79.5542 83° East 470 541 27,000  Level Cleveland Center
10:34PM 42.4100 -79.3739 83° East 470 541 27,000  Level Cleveland Center
10:35PM 42.4247 -79.1964 84° East 470 541 27,000  Level Cleveland Center
10:36PM 42.4392 -79.0161 84° East 475 547 27,000  Level Cleveland Center
10:37PM 42.4572 -78.8186 83° East 481 554 27,000  Level Cleveland Center
10:38PM 42.4711 -78.6408 84° East 481 554 27,000  Level Cleveland Center
10:39PM 42.4867 -78.4631 83° East 481 554 27,000  Level Cleveland Center
10:40PM 42.5000 -78.2853 84° East 481 554 27,000  Level Cleveland Center
10:41PM 42.5128 -78.1044 84° East 481 554 27,000  Level Cleveland Center
10:42PM 42.5256 -77.9236 84° East 481 554 27,000  Level Cleveland Center
10:43PM 42.5342 -77.7683 86° East 476 548 27,000  Level Cleveland Center
10:44PM 42.5506 -77.5897 83° East 476 548 27,000  Level Cleveland Center
10:46PM 42.5775 -77.1611 85° East 458 527 27,000  Level Boston Center
10:47PM 42.5883 -76.9953 85° East 453 521 27,000  Level Boston Center
10:48PM 42.5992 -76.8239 85° East 447 514 27,000  Level Boston Center
10:49PM 42.6100 -76.6525 85° East 447 514 27,000  Level Boston Center
10:50PM 42.6206 -76.4753 85° East 457 526 27,000  Level Boston Center
10:51PM 42.6308 -76.3011 85° East 462 532 27,000 -180 Level Boston Center
10:52PM 42.6433 -76.1069 85° East 462 532 26,700 -1,140 Descending Boston Center
10:53PM 42.6511 -75.9267 87° East 462 532 24,800 -1,860 Descending Boston Center
10:54PM 42.6628 -75.7494 85° East 467 537 23,000 -1,680 Descending Boston Center
10:55PM 42.6719 -75.5775 86° East 467 537 21,200 -1,740 Descending Boston Center
10:56PM 42.6817 -75.3692 86° East 455 524 19,200 -1,800 Descending Boston Center
10:57PM 42.6897 -75.2056 86° East 444 511 17,700 -1,560 Descending Boston Center
10:58PM 42.6942 -75.1153 86° East 426 490 16,700 -1,620 Descending Boston Center
10:58PM 42.6975 -75.0506 86° East 429 494 16,100 -1,620 Descending Boston Center
10:59PM 42.7025 -74.9319 87° East 399 459 14,800 -1,500 Descending Boston Center
11:00PM 42.7094 -74.7939 86° East 366 421 13,400 -1,560 Descending Boston Center
11:01PM 42.7147 -74.6442 87° East 363 418 11,700 -1,260 Descending Boston Center
11:02PM 42.7233 -74.5089 85° East 364 419 10,900 -900 Descending Boston Center
11:03PM 42.7628 -74.4000 64° Northeast 299 344 9,900 -1,320 Descending Boston Center
11:04PM 42.7997 -74.3078 61° Northeast 270 311 8,300 -1,620 Descending Boston Center
11:05PM 42.8347 -74.2181 62° Northeast 268 308 6,700 -1,560 Descending Boston Center
11:06PM 42.8736 -74.1200 62° Northeast 265 305 5,100 -1,560 Descending Boston Center
11:07PM 42.8853 -74.0269 80° East 260 299 3,500 -1,320 Descending Boston Center
11:08PM 42.8972 -73.9167 82° East 265 305 2,500 -780 Descending Boston Center
11:09PM 42.9003 -73.8403 87° East 242 278 2,000 -300 Descending Boston Center
11:10PM 42.8694 -73.8083 143° Southeast 169 194 2,000  Level Boston Center